createdAt,value
2019-02-02T00:00:42.985Z,1010.55
2019-02-02T00:01:42.971Z,1010.54
2019-02-02T00:02:42.952Z,1010.5
2019-02-02T00:03:42.936Z,1010.6
2019-02-02T00:04:42.921Z,1010.58
2019-02-02T00:05:42.906Z,1010.57
2019-02-02T00:06:42.888Z,1010.51
2019-02-02T00:07:42.872Z,1010.56
2019-02-02T00:08:42.856Z,1010.58
2019-02-02T00:09:42.841Z,1010.56
2019-02-02T00:10:42.826Z,1010.54
2019-02-02T00:11:42.809Z,1010.54
2019-02-02T00:12:42.791Z,1010.53
2019-02-02T00:13:42.776Z,1010.52
2019-02-02T00:14:45.089Z,1010.51
2019-02-02T00:15:42.745Z,1010.5
2019-02-02T00:16:42.728Z,1010.52
2019-02-02T00:17:42.713Z,1010.55
2019-02-02T00:18:42.695Z,1010.5
2019-02-02T00:19:42.679Z,1010.44
2019-02-02T00:20:42.663Z,1010.44
2019-02-02T00:21:42.646Z,1010.4
2019-02-02T00:22:42.630Z,1010.38
2019-02-02T00:23:42.615Z,1010.37
2019-02-02T00:24:42.597Z,1010.33
2019-02-02T00:25:42.580Z,1010.33
2019-02-02T00:26:42.565Z,1010.38
2019-02-02T00:27:42.549Z,1010.4
2019-02-02T00:28:42.532Z,1010.42
2019-02-02T00:29:42.516Z,1010.45
2019-02-02T00:30:42.500Z,1010.45
2019-02-02T00:31:42.482Z,1010.47
2019-02-02T00:32:42.487Z,1010.53
2019-02-02T00:33:42.451Z,1010.51
2019-02-02T00:34:42.435Z,1010.57
2019-02-02T00:35:42.416Z,1010.59
2019-02-02T00:36:42.401Z,1010.58
2019-02-02T00:37:42.384Z,1010.61
2019-02-02T00:38:42.368Z,1010.64
2019-02-02T00:39:42.352Z,1010.61
2019-02-02T00:40:42.336Z,1010.6
2019-02-02T00:41:42.319Z,1010.6
2019-02-02T00:42:42.303Z,1010.61
2019-02-02T00:43:42.285Z,1010.6
2019-02-02T00:44:42.269Z,1010.59
2019-02-02T00:45:42.254Z,1010.62
2019-02-02T00:46:42.236Z,1010.63
2019-02-02T00:47:42.220Z,1010.65
2019-02-02T00:48:42.204Z,1010.72
2019-02-02T00:49:42.187Z,1010.75
2019-02-02T00:50:42.170Z,1010.71
2019-02-02T00:51:42.154Z,1010.69
2019-02-02T00:52:42.138Z,1010.68
2019-02-02T00:53:42.121Z,1010.66
2019-02-02T00:54:42.105Z,1010.64
2019-02-02T00:55:42.088Z,1010.62
2019-02-02T00:56:42.072Z,1010.64
2019-02-02T00:57:52.653Z,1010.6
2019-02-02T00:58:42.039Z,1010.59
2019-02-02T00:59:42.023Z,1010.62
2019-02-02T01:00:42.006Z,1010.56
2019-02-02T01:01:41.992Z,1010.58
2019-02-02T01:02:41.973Z,1010.54
2019-02-02T01:03:41.956Z,1010.55
2019-02-02T01:04:41.942Z,1010.52
2019-02-02T01:05:41.923Z,1010.6
2019-02-02T01:06:41.908Z,1010.65
2019-02-02T01:07:41.892Z,1010.65
2019-02-02T01:08:41.873Z,1010.69
2019-02-02T01:09:41.859Z,1010.7
2019-02-02T01:10:41.841Z,1010.67
2019-02-02T01:11:41.824Z,1010.68
2019-02-02T01:12:41.808Z,1010.63
2019-02-02T01:13:41.791Z,1010.6
2019-02-02T01:14:41.775Z,1010.57
2019-02-02T01:15:41.757Z,1010.58
2019-02-02T01:16:41.754Z,1010.58
2019-02-02T01:17:41.725Z,1010.59
2019-02-02T01:18:41.708Z,1010.55
2019-02-02T01:19:41.692Z,1010.56
2019-02-02T01:20:41.676Z,1010.54
2019-02-02T01:21:41.660Z,1010.57
2019-02-02T01:22:41.644Z,1010.53
2019-02-02T01:23:41.627Z,1010.54
2019-02-02T01:24:41.611Z,1010.51
2019-02-02T01:25:41.594Z,1010.52
2019-02-02T01:26:41.577Z,1010.45
2019-02-02T01:27:41.561Z,1010.48
2019-02-02T01:28:41.545Z,1010.48
2019-02-02T01:29:41.528Z,1010.45
2019-02-02T01:30:41.512Z,1010.43
2019-02-02T01:31:41.495Z,1010.44
2019-02-02T01:32:41.480Z,1010.41
2019-02-02T01:33:41.463Z,1010.41
2019-02-02T01:34:41.447Z,1010.4
2019-02-02T01:35:41.430Z,1010.4
2019-02-02T01:36:41.413Z,1010.4
2019-02-02T01:37:41.397Z,1010.35
2019-02-02T01:38:41.382Z,1010.34
2019-02-02T01:39:41.364Z,1010.35
2019-02-02T01:40:41.348Z,1010.36
2019-02-02T01:41:41.331Z,1010.33
2019-02-02T01:42:41.315Z,1010.31
2019-02-02T01:43:41.298Z,1010.33
2019-02-02T01:44:41.283Z,1010.38
2019-02-02T01:45:41.267Z,1010.38
2019-02-02T01:46:41.250Z,1010.4
2019-02-02T01:47:41.234Z,1010.39
2019-02-02T01:48:41.216Z,1010.4
2019-02-02T01:49:41.203Z,1010.4
2019-02-02T01:50:41.185Z,1010.39
2019-02-02T01:51:41.168Z,1010.4
2019-02-02T01:52:41.150Z,1010.4
2019-02-02T01:53:41.134Z,1010.36
2019-02-02T01:54:41.119Z,1010.32
2019-02-02T01:55:41.107Z,1010.32
2019-02-02T01:56:41.084Z,1010.27
2019-02-02T01:57:41.069Z,1010.31
2019-02-02T01:58:41.052Z,1010.27
2019-02-02T01:59:41.034Z,1010.27
2019-02-02T02:00:41.020Z,1010.28
2019-02-02T02:01:41.658Z,1010.28
2019-02-02T02:02:40.987Z,1010.3
2019-02-02T02:03:40.968Z,1010.28
2019-02-02T02:04:40.952Z,1010.25
2019-02-02T02:05:40.937Z,1010.23
2019-02-02T02:06:40.920Z,1010.28
2019-02-02T02:07:40.906Z,1010.3
2019-02-02T02:08:40.888Z,1010.35
2019-02-02T02:09:40.871Z,1010.4
2019-02-02T02:10:40.854Z,1010.45
2019-02-02T02:11:40.837Z,1010.46
2019-02-02T02:12:40.822Z,1010.47
2019-02-02T02:13:40.808Z,1010.49
2019-02-02T02:14:40.789Z,1010.52
2019-02-02T02:15:40.770Z,1010.52
2019-02-02T02:16:40.757Z,1010.52
2019-02-02T02:17:40.738Z,1010.54
2019-02-02T02:18:40.723Z,1010.55
2019-02-02T02:19:40.706Z,1010.54
2019-02-02T02:20:40.690Z,1010.52
2019-02-02T02:21:40.672Z,1010.49
2019-02-02T02:22:41.537Z,1010.5
2019-02-02T02:23:40.639Z,1010.46
2019-02-02T02:24:40.677Z,1010.46
2019-02-02T02:25:40.605Z,1010.43
2019-02-02T02:26:40.589Z,1010.42
2019-02-02T02:27:40.591Z,1010.42
2019-02-02T02:28:40.555Z,1010.45
2019-02-02T02:29:40.539Z,1010.44
2019-02-02T02:30:40.523Z,1010.43
2019-02-02T02:31:40.509Z,1010.4
2019-02-02T02:32:40.489Z,1010.39
2019-02-02T02:33:40.473Z,1010.34
2019-02-02T02:34:40.456Z,1010.36
2019-02-02T02:35:40.440Z,1010.32
2019-02-02T02:36:40.422Z,1010.26
2019-02-02T02:37:40.407Z,1010.29
2019-02-02T02:38:40.391Z,1010.26
2019-02-02T02:39:40.372Z,1010.27
2019-02-02T02:40:40.358Z,1010.24
2019-02-02T02:41:40.340Z,1010.27
2019-02-02T02:42:40.324Z,1010.27
2019-02-02T02:43:40.305Z,1010.28
2019-02-02T02:44:40.291Z,1010.26
2019-02-02T02:45:40.274Z,1010.22
2019-02-02T02:46:40.256Z,1010.18
2019-02-02T02:47:40.240Z,1010.14
2019-02-02T02:48:40.223Z,1010.11
2019-02-02T02:49:40.217Z,1010.08
2019-02-02T02:50:40.189Z,1010.1
2019-02-02T02:51:40.178Z,1010.05
2019-02-02T02:52:40.157Z,1010.02
2019-02-02T02:53:40.142Z,1010.05
2019-02-02T02:54:40.124Z,1010.02
2019-02-02T02:55:40.106Z,1010.04
2019-02-02T02:56:40.090Z,1010
2019-02-02T02:57:40.074Z,1010.03
2019-02-02T02:58:41.756Z,1010.03
2019-02-02T02:59:40.040Z,1010.02
2019-02-02T03:00:40.024Z,1009.97
2019-02-02T03:01:40.006Z,1009.94
2019-02-02T03:02:39.991Z,1009.92
2019-02-02T03:03:39.975Z,1009.95
2019-02-02T03:04:39.957Z,1010.01
2019-02-02T03:05:39.940Z,1009.91
2019-02-02T03:06:39.923Z,1009.98
2019-02-02T03:07:39.907Z,1009.91
2019-02-02T03:08:39.891Z,1009.93
2019-02-02T03:09:39.873Z,1009.98
2019-02-02T03:10:39.857Z,1010.03
2019-02-02T03:11:39.842Z,1010.13
2019-02-02T03:12:39.823Z,1010.11
2019-02-02T03:13:39.807Z,1010.08
2019-02-02T03:14:39.791Z,1010.05
2019-02-02T03:15:39.775Z,1010.04
2019-02-02T03:16:39.757Z,1009.98
2019-02-02T03:17:39.740Z,1009.95
2019-02-02T03:18:39.723Z,1009.91
2019-02-02T03:19:39.706Z,1009.98
2019-02-02T03:20:39.691Z,1009.95
2019-02-02T03:21:39.674Z,1009.95
2019-02-02T03:22:39.658Z,1009.98
2019-02-02T03:23:39.640Z,1009.97
2019-02-02T03:24:39.623Z,1009.97
2019-02-02T03:25:39.608Z,1009.93
2019-02-02T03:26:39.591Z,1009.98
2019-02-02T03:27:39.572Z,1009.99
2019-02-02T03:28:39.557Z,1010.02
2019-02-02T03:29:39.562Z,1010.02
2019-02-02T03:30:39.524Z,1009.92
2019-02-02T03:31:39.508Z,1009.96
2019-02-02T03:32:39.490Z,1009.92
2019-02-02T03:33:39.474Z,1009.93
2019-02-02T03:34:39.456Z,1009.92
2019-02-02T03:35:39.440Z,1009.96
2019-02-02T03:36:39.428Z,1009.96
2019-02-02T03:37:39.410Z,1009.98
2019-02-02T03:38:39.389Z,1010.03
2019-02-02T03:39:39.379Z,1010
2019-02-02T03:40:39.361Z,1010
2019-02-02T03:41:39.339Z,1009.98
2019-02-02T03:42:39.323Z,1009.96
2019-02-02T03:43:39.307Z,1009.99
2019-02-02T03:44:39.291Z,1009.97
2019-02-02T03:45:40.674Z,1009.95
2019-02-02T03:46:39.258Z,1009.9
2019-02-02T03:47:39.248Z,1009.93
2019-02-02T03:48:39.224Z,1010.01
2019-02-02T03:49:39.207Z,1010.04
2019-02-02T03:50:39.190Z,1010.03
2019-02-02T03:51:39.173Z,1010.05
2019-02-02T03:52:39.155Z,1010.07
2019-02-02T03:53:41.067Z,1010.14
2019-02-02T03:54:39.123Z,1010.15
2019-02-02T03:55:39.107Z,1010.13
2019-02-02T03:56:39.090Z,1010.13
2019-02-02T03:57:39.073Z,1010.11
2019-02-02T03:58:39.060Z,1010.13
2019-02-02T03:59:39.040Z,1010.1
2019-02-02T04:00:39.025Z,1010.07
2019-02-02T04:01:39.008Z,1009.99
2019-02-02T04:02:38.991Z,1009.91
2019-02-02T04:03:38.973Z,1009.92
2019-02-02T04:04:38.957Z,1009.98
2019-02-02T04:05:38.941Z,1009.96
2019-02-02T04:06:38.924Z,1010
2019-02-02T04:07:38.907Z,1009.92
2019-02-02T04:08:38.893Z,1009.91
2019-02-02T04:09:38.875Z,1009.84
2019-02-02T04:10:38.859Z,1009.85
2019-02-02T04:11:38.842Z,1009.82
2019-02-02T04:12:38.828Z,1009.89
2019-02-02T04:13:38.810Z,1009.96
2019-02-02T04:14:38.791Z,1009.95
2019-02-02T04:15:38.776Z,1009.94
2019-02-02T04:16:38.764Z,1009.96
2019-02-02T04:17:38.744Z,1009.92
2019-02-02T04:18:38.726Z,1009.87
2019-02-02T04:19:38.710Z,1009.83
2019-02-02T04:20:38.694Z,1009.83
2019-02-02T04:21:38.678Z,1009.78
2019-02-02T04:22:38.661Z,1009.78
2019-02-02T04:23:38.644Z,1009.83
2019-02-02T04:24:38.630Z,1009.79
2019-02-02T04:25:38.611Z,1009.77
2019-02-02T04:26:38.595Z,1009.77
2019-02-02T04:27:38.579Z,1009.81
2019-02-02T04:28:38.567Z,1009.78
2019-02-02T04:29:38.545Z,1009.91
2019-02-02T04:30:38.529Z,1009.98
2019-02-02T04:31:38.514Z,1009.98
2019-02-02T04:32:38.497Z,1009.96
2019-02-02T04:33:38.482Z,1009.86
2019-02-02T04:34:38.463Z,1009.85
2019-02-02T04:35:38.455Z,1009.84
2019-02-02T04:36:38.430Z,1009.88
2019-02-02T04:37:38.512Z,1009.93
2019-02-02T04:38:38.400Z,1009.91
2019-02-02T04:39:38.382Z,1009.91
2019-02-02T04:40:38.366Z,1009.85
2019-02-02T04:41:38.349Z,1009.75
2019-02-02T04:42:38.333Z,1009.72
2019-02-02T04:43:38.316Z,1009.63
2019-02-02T04:44:38.300Z,1009.61
2019-02-02T04:45:38.282Z,1009.56
2019-02-02T04:46:38.267Z,1009.56
2019-02-02T04:47:38.371Z,1009.54
2019-02-02T04:48:38.236Z,1009.55
2019-02-02T04:49:38.264Z,1009.52
2019-02-02T04:50:38.202Z,1009.52
2019-02-02T04:51:38.185Z,1009.62
2019-02-02T04:52:38.169Z,1009.57
2019-02-02T04:53:38.153Z,1009.58
2019-02-02T04:54:38.137Z,1009.58
2019-02-02T04:55:38.121Z,1009.51
2019-02-02T04:56:38.104Z,1009.48
2019-02-02T04:57:38.089Z,1009.46
2019-02-02T04:58:38.072Z,1009.37
2019-02-02T04:59:38.056Z,1009.35
2019-02-02T05:00:38.040Z,1009.34
2019-02-02T05:01:38.024Z,1009.33
2019-02-02T05:02:38.007Z,1009.34
2019-02-02T05:03:37.991Z,1009.38
2019-02-02T05:04:37.975Z,1009.36
2019-02-02T05:05:37.966Z,1009.39
2019-02-02T05:06:37.943Z,1009.31
2019-02-02T05:07:37.926Z,1009.3
2019-02-02T05:08:37.913Z,1009.33
2019-02-02T05:09:37.895Z,1009.34
2019-02-02T05:10:37.878Z,1009.37
2019-02-02T05:11:37.862Z,1009.4
2019-02-02T05:12:37.846Z,1009.44
2019-02-02T05:13:37.829Z,1009.54
2019-02-02T05:14:37.813Z,1009.47
2019-02-02T05:15:37.798Z,1009.52
2019-02-02T05:16:37.780Z,1009.56
2019-02-02T05:17:37.764Z,1009.52
2019-02-02T05:18:37.748Z,1009.53
2019-02-02T05:19:37.733Z,1009.48
2019-02-02T05:20:37.715Z,1009.46
2019-02-02T05:21:37.699Z,1009.51
2019-02-02T05:22:37.683Z,1009.52
2019-02-02T05:23:37.968Z,1009.6
2019-02-02T05:24:37.651Z,1009.65
2019-02-02T05:25:37.635Z,1009.69
2019-02-02T05:26:37.618Z,1009.72
2019-02-02T05:27:37.602Z,1009.62
2019-02-02T05:28:37.585Z,1009.63
2019-02-02T05:29:41.268Z,1009.61
2019-02-02T05:30:37.553Z,1009.55
2019-02-02T05:31:37.537Z,1009.59
2019-02-02T05:32:37.521Z,1009.55
2019-02-02T05:33:37.504Z,1009.55
2019-02-02T05:34:37.489Z,1009.52
2019-02-02T05:35:37.472Z,1009.52
2019-02-02T05:36:37.458Z,1009.58
2019-02-02T05:37:37.440Z,1009.49
2019-02-02T05:38:37.423Z,1009.51
2019-02-02T05:39:37.407Z,1009.42
2019-02-02T05:40:37.391Z,1009.33
2019-02-02T05:41:37.375Z,1009.37
2019-02-02T05:42:37.357Z,1009.35
2019-02-02T05:43:37.363Z,1009.33
2019-02-02T05:44:37.325Z,1009.27
2019-02-02T05:45:37.408Z,1009.28
2019-02-02T05:46:37.293Z,1009.28
2019-02-02T05:47:37.277Z,1009.32
2019-02-02T05:48:37.260Z,1009.4
2019-02-02T05:49:37.243Z,1009.47
2019-02-02T05:50:37.228Z,1009.49
2019-02-02T05:51:37.211Z,1009.58
2019-02-02T05:52:37.196Z,1009.56
2019-02-02T05:53:37.180Z,1009.52
2019-02-02T05:54:37.164Z,1009.52
2019-02-02T05:55:37.147Z,1009.52
2019-02-02T05:56:37.130Z,1009.54
2019-02-02T05:57:37.113Z,1009.6
2019-02-02T05:58:37.097Z,1009.6
2019-02-02T05:59:37.081Z,1009.63
2019-02-02T06:00:37.064Z,1009.68
2019-02-02T06:01:37.049Z,1009.71
2019-02-02T06:02:37.032Z,1009.71
2019-02-02T06:03:37.018Z,1009.69
2019-02-02T06:04:36.999Z,1009.63
2019-02-02T06:05:36.983Z,1009.6
2019-02-02T06:06:36.967Z,1009.58
2019-02-02T06:07:36.951Z,1009.62
2019-02-02T06:08:36.934Z,1009.65
2019-02-02T06:09:36.921Z,1009.68
2019-02-02T06:10:36.902Z,1009.69
2019-02-02T06:11:36.885Z,1009.71
2019-02-02T06:12:36.869Z,1009.69
2019-02-02T06:13:36.853Z,1009.67
2019-02-02T06:14:36.837Z,1009.64
2019-02-02T06:15:36.820Z,1009.66
2019-02-02T06:16:36.804Z,1009.65
2019-02-02T06:17:36.789Z,1009.64
2019-02-02T06:18:36.772Z,1009.72
2019-02-02T06:19:36.755Z,1009.7
2019-02-02T06:20:36.740Z,1009.72
2019-02-02T06:21:36.724Z,1009.69
2019-02-02T06:22:36.708Z,1009.69
2019-02-02T06:23:36.689Z,1009.7
2019-02-02T06:24:36.674Z,1009.74
2019-02-02T06:25:36.665Z,1009.76
2019-02-02T06:26:36.642Z,1009.77
2019-02-02T06:27:36.627Z,1009.78
2019-02-02T06:28:36.611Z,1009.79
2019-02-02T06:29:36.594Z,1009.79
2019-02-02T06:30:36.580Z,1009.8
2019-02-02T06:31:36.563Z,1009.83
2019-02-02T06:32:36.547Z,1009.8
2019-02-02T06:33:36.533Z,1009.8
2019-02-02T06:34:36.515Z,1009.73
2019-02-02T06:35:36.498Z,1009.71
2019-02-02T06:36:36.482Z,1009.62
2019-02-02T06:37:36.464Z,1009.67
2019-02-02T06:38:36.449Z,1009.68
2019-02-02T06:39:36.436Z,1009.71
2019-02-02T06:40:36.418Z,1009.73
2019-02-02T06:41:36.402Z,1009.81
2019-02-02T06:42:36.386Z,1009.86
2019-02-02T06:43:36.371Z,1009.84
2019-02-02T06:44:36.354Z,1009.86
2019-02-02T06:45:36.338Z,1009.85
2019-02-02T06:46:43.173Z,1009.89
2019-02-02T06:47:36.308Z,1009.91
2019-02-02T06:48:36.290Z,1009.93
2019-02-02T06:49:36.274Z,1009.94
2019-02-02T06:50:36.258Z,1009.88
2019-02-02T06:51:36.242Z,1009.8
2019-02-02T06:52:36.228Z,1009.77
2019-02-02T06:53:36.210Z,1009.68
2019-02-02T06:54:36.195Z,1009.7
2019-02-02T06:55:36.181Z,1009.72
2019-02-02T06:56:36.162Z,1009.74
2019-02-02T06:57:36.148Z,1009.83
2019-02-02T06:58:36.131Z,1009.81
2019-02-02T06:59:36.114Z,1009.78
2019-02-02T07:00:36.098Z,1009.78
2019-02-02T07:01:36.121Z,1009.73
2019-02-02T07:02:36.064Z,1009.71
2019-02-02T07:03:36.050Z,1009.67
2019-02-02T07:04:36.034Z,1009.68
2019-02-02T07:05:36.019Z,1009.72
2019-02-02T07:06:36.004Z,1009.71
2019-02-02T07:07:35.985Z,1009.74
2019-02-02T07:08:35.969Z,1009.73
2019-02-02T07:09:35.955Z,1009.74
2019-02-02T07:10:35.939Z,1009.68
2019-02-02T07:11:35.922Z,1009.63
2019-02-02T07:12:35.910Z,1009.67
2019-02-02T07:13:36.213Z,1009.74
2019-02-02T07:14:35.872Z,1009.73
2019-02-02T07:15:35.859Z,1009.8
2019-02-02T07:16:35.844Z,1009.81
2019-02-02T07:17:35.826Z,1009.88
2019-02-02T07:18:35.809Z,1009.91
2019-02-02T07:19:35.794Z,1009.89
2019-02-02T07:20:35.778Z,1009.88
2019-02-02T07:21:35.761Z,1009.9
2019-02-02T07:22:35.745Z,1009.83
2019-02-02T07:23:35.729Z,1009.83
2019-02-02T07:24:35.713Z,1009.86
2019-02-02T07:25:35.704Z,1009.85
2019-02-02T07:26:35.681Z,1009.89
2019-02-02T07:27:35.665Z,1009.86
2019-02-02T07:28:35.649Z,1009.91
2019-02-02T07:29:35.633Z,1009.95
2019-02-02T07:30:35.622Z,1009.97
2019-02-02T07:31:35.603Z,1009.94
2019-02-02T07:32:35.585Z,1009.98
2019-02-02T07:33:35.569Z,1009.93
2019-02-02T07:34:35.554Z,1009.91
2019-02-02T07:35:35.536Z,1009.95
2019-02-02T07:36:35.520Z,1009.99
2019-02-02T07:37:35.505Z,1009.97
2019-02-02T07:38:35.489Z,1010.02
2019-02-02T07:39:35.476Z,1010.05
2019-02-02T07:40:35.457Z,1010.03
2019-02-02T07:41:35.442Z,1010.04
2019-02-02T07:42:35.425Z,1010.07
2019-02-02T07:43:35.409Z,1010.1
2019-02-02T07:44:35.393Z,1010.15
2019-02-02T07:45:35.381Z,1010.17
2019-02-02T07:46:35.361Z,1010.18
2019-02-02T07:47:35.346Z,1010.15
2019-02-02T07:48:35.331Z,1010.11
2019-02-02T07:49:35.315Z,1010.06
2019-02-02T07:50:35.308Z,1010.02
2019-02-02T07:51:35.282Z,1009.99
2019-02-02T07:52:35.267Z,1010.03
2019-02-02T07:53:35.252Z,1010.02
2019-02-02T07:54:35.236Z,1009.98
2019-02-02T07:55:35.220Z,1009.96
2019-02-02T07:56:35.204Z,1009.98
2019-02-02T07:57:35.188Z,1009.98
2019-02-02T07:58:35.172Z,1010
2019-02-02T07:59:35.160Z,1009.99
2019-02-02T08:00:40.642Z,1010.03
2019-02-02T08:01:35.126Z,1009.96
2019-02-02T08:02:35.110Z,1009.9
2019-02-02T08:03:35.095Z,1009.9
2019-02-02T08:04:35.079Z,1009.9
2019-02-02T08:05:35.071Z,1009.92
2019-02-02T08:06:35.052Z,1009.95
2019-02-02T08:07:35.034Z,1009.93
2019-02-02T08:08:35.017Z,1009.91
2019-02-02T08:09:35.002Z,1009.87
2019-02-02T08:10:34.987Z,1009.88
2019-02-02T08:11:34.973Z,1009.89
2019-02-02T08:12:34.957Z,1009.89
2019-02-02T08:13:34.941Z,1009.86
2019-02-02T08:14:34.928Z,1009.86
2019-02-02T08:15:34.909Z,1009.77
2019-02-02T08:16:34.893Z,1009.75
2019-02-02T08:17:34.879Z,1009.74
2019-02-02T08:18:34.864Z,1009.73
2019-02-02T08:19:34.850Z,1009.76
2019-02-02T08:20:34.833Z,1009.75
2019-02-02T08:21:34.818Z,1009.77
2019-02-02T08:22:34.802Z,1009.75
2019-02-02T08:23:34.786Z,1009.79
2019-02-02T08:24:34.770Z,1009.87
2019-02-02T08:25:34.756Z,1009.92
2019-02-02T08:26:34.741Z,1009.9
2019-02-02T08:27:34.725Z,1009.85
2019-02-02T08:28:34.709Z,1009.82
2019-02-02T08:29:34.694Z,1009.85
2019-02-02T08:30:35.720Z,1009.89
2019-02-02T08:31:34.664Z,1009.94
2019-02-02T08:32:34.649Z,1009.97
2019-02-02T08:33:34.637Z,1009.91
2019-02-02T08:34:34.629Z,1009.84
2019-02-02T08:35:34.605Z,1009.76
2019-02-02T08:36:34.587Z,1009.66
2019-02-02T08:37:34.576Z,1009.6
2019-02-02T08:38:34.558Z,1009.53
2019-02-02T08:39:34.542Z,1009.5
2019-02-02T08:40:34.527Z,1009.56
2019-02-02T08:41:34.511Z,1009.63
2019-02-02T08:42:34.497Z,1009.65
2019-02-02T08:43:34.482Z,1009.65
2019-02-02T08:44:34.467Z,1009.66
2019-02-02T08:45:34.451Z,1009.71
2019-02-02T08:46:34.439Z,1009.71
2019-02-02T08:47:34.422Z,1009.74
2019-02-02T08:48:34.406Z,1009.77
2019-02-02T08:49:34.392Z,1009.84
2019-02-02T08:50:34.380Z,1009.82
2019-02-02T08:51:34.362Z,1009.79
2019-02-02T08:52:34.344Z,1009.77
2019-02-02T08:53:34.358Z,1009.78
2019-02-02T08:54:34.316Z,1009.82
2019-02-02T08:55:34.344Z,1009.85
2019-02-02T08:56:34.290Z,1009.87
2019-02-02T08:57:34.272Z,1009.89
2019-02-02T08:58:34.256Z,1009.85
2019-02-02T08:59:34.239Z,1009.88
2019-02-02T09:00:34.231Z,1009.88
2019-02-02T09:01:34.213Z,1009.83
2019-02-02T09:02:34.198Z,1009.82
2019-02-02T09:03:34.203Z,1009.83
2019-02-02T09:04:34.164Z,1009.8
2019-02-02T09:05:34.281Z,1009.79
2019-02-02T09:06:38.818Z,1009.78
2019-02-02T09:07:34.370Z,1009.78
2019-02-02T09:08:34.105Z,1009.83
2019-02-02T09:09:34.091Z,1009.91
2019-02-02T09:10:34.075Z,1009.99
2019-02-02T09:11:34.059Z,1009.97
2019-02-02T09:12:34.045Z,1009.98
2019-02-02T09:13:36.569Z,1009.99
2019-02-02T09:14:34.013Z,1009.96
2019-02-02T09:15:33.999Z,1010.05
2019-02-02T09:16:33.990Z,1010.09
2019-02-02T09:17:33.971Z,1010.1
2019-02-02T09:18:33.954Z,1010.08
2019-02-02T09:19:33.940Z,1010
2019-02-02T09:20:33.927Z,1010.01
2019-02-02T09:21:33.910Z,1009.98
2019-02-02T09:22:33.898Z,1010
2019-02-02T09:23:33.881Z,1009.97
2019-02-02T09:24:33.864Z,1009.91
2019-02-02T09:25:33.850Z,1009.9
2019-02-02T09:26:33.834Z,1009.88
2019-02-02T09:27:33.821Z,1009.92
2019-02-02T09:28:33.806Z,1009.97
2019-02-02T09:29:33.791Z,1010.01
2019-02-02T09:30:33.777Z,1010.01
2019-02-02T09:31:33.761Z,1009.98
2019-02-02T09:32:33.745Z,1009.93
2019-02-02T09:33:33.732Z,1009.87
2019-02-02T09:34:33.837Z,1009.81
2019-02-02T09:35:33.709Z,1009.78
2019-02-02T09:36:33.690Z,1009.76
2019-02-02T09:37:33.673Z,1009.8
2019-02-02T09:38:33.658Z,1009.8
2019-02-02T09:39:33.642Z,1009.83
2019-02-02T09:40:33.628Z,1009.89
2019-02-02T09:41:33.616Z,1009.89
2019-02-02T09:42:33.601Z,1009.94
2019-02-02T09:43:33.585Z,1009.96
2019-02-02T09:44:33.572Z,1009.96
2019-02-02T09:45:33.556Z,1009.95
2019-02-02T09:46:33.542Z,1009.98
2019-02-02T09:47:33.529Z,1009.87
2019-02-02T09:48:33.516Z,1009.82
2019-02-02T09:49:33.499Z,1009.8
2019-02-02T09:50:33.484Z,1009.76
2019-02-02T09:51:33.468Z,1009.78
2019-02-02T09:52:33.455Z,1009.79
2019-02-02T09:53:33.444Z,1009.82
2019-02-02T09:54:33.425Z,1009.86
2019-02-02T09:55:33.412Z,1009.87
2019-02-02T09:56:33.397Z,1009.87
2019-02-02T09:57:33.384Z,1009.85
2019-02-02T09:58:33.368Z,1009.82
2019-02-02T09:59:33.354Z,1009.83
2019-02-02T10:00:33.340Z,1009.76
2019-02-02T10:01:33.327Z,1009.71
2019-02-02T10:02:33.310Z,1009.7
2019-02-02T10:03:33.295Z,1009.69
2019-02-02T10:04:33.282Z,1009.67
2019-02-02T10:05:33.266Z,1009.62
2019-02-02T10:06:33.253Z,1009.6
2019-02-02T10:07:33.238Z,1009.62
2019-02-02T10:08:33.227Z,1009.65
2019-02-02T10:09:33.210Z,1009.71
2019-02-02T10:10:33.195Z,1009.7
2019-02-02T10:11:33.181Z,1009.76
2019-02-02T10:12:33.169Z,1009.75
2019-02-02T10:13:33.152Z,1009.76
2019-02-02T10:14:33.138Z,1009.79
2019-02-02T10:15:33.124Z,1009.8
2019-02-02T10:16:33.109Z,1009.81
2019-02-02T10:17:33.094Z,1009.8
2019-02-02T10:18:33.080Z,1009.79
2019-02-02T10:19:33.067Z,1009.73
2019-02-02T10:20:33.051Z,1009.74
2019-02-02T10:21:33.036Z,1009.73
2019-02-02T10:22:33.024Z,1009.74
2019-02-02T10:23:33.009Z,1009.72
2019-02-02T10:24:32.999Z,1009.69
2019-02-02T10:25:32.980Z,1009.7
2019-02-02T10:26:32.966Z,1009.69
2019-02-02T10:27:32.950Z,1009.71
2019-02-02T10:28:32.935Z,1009.73
2019-02-02T10:29:32.924Z,1009.79
2019-02-02T10:30:32.909Z,1009.79
2019-02-02T10:31:39.448Z,1009.82
2019-02-02T10:32:32.879Z,1009.87
2019-02-02T10:33:32.864Z,1009.92
2019-02-02T10:34:32.851Z,1009.87
2019-02-02T10:35:32.836Z,1009.84
2019-02-02T10:36:32.823Z,1009.81
2019-02-02T10:37:32.809Z,1009.81
2019-02-02T10:38:32.793Z,1009.82
2019-02-02T10:39:32.778Z,1009.79
2019-02-02T10:40:32.765Z,1009.75
2019-02-02T10:41:32.754Z,1009.68
2019-02-02T10:42:32.736Z,1009.76
2019-02-02T10:43:32.722Z,1009.71
2019-02-02T10:44:32.708Z,1009.66
2019-02-02T10:45:32.693Z,1009.62
2019-02-02T10:46:32.679Z,1009.66
2019-02-02T10:47:32.665Z,1009.69
2019-02-02T10:48:32.651Z,1009.76
2019-02-02T10:49:32.635Z,1009.78
2019-02-02T10:50:32.621Z,1009.81
2019-02-02T10:51:32.607Z,1009.84
2019-02-02T10:52:32.592Z,1009.85
2019-02-02T10:53:32.579Z,1009.84
2019-02-02T10:54:32.563Z,1009.83
2019-02-02T10:55:32.551Z,1009.84
2019-02-02T10:56:32.535Z,1009.8
2019-02-02T10:57:32.521Z,1009.78
2019-02-02T10:58:32.508Z,1009.76
2019-02-02T10:59:32.493Z,1009.7
2019-02-02T11:00:32.478Z,1009.72
2019-02-02T11:01:32.464Z,1009.76
2019-02-02T11:02:32.454Z,1009.71
2019-02-02T11:03:32.436Z,1009.72
2019-02-02T11:04:32.450Z,1009.67
2019-02-02T11:05:32.535Z,1009.62
2019-02-02T11:06:32.466Z,1009.57
2019-02-02T11:07:32.385Z,1009.54
2019-02-02T11:08:32.378Z,1009.5
2019-02-02T11:09:32.379Z,1009.5
2019-02-02T11:10:32.433Z,1009.52
2019-02-02T11:11:32.320Z,1009.54
2019-02-02T11:12:32.397Z,1009.54
2019-02-02T11:13:32.436Z,1009.57
2019-02-02T11:14:32.345Z,1009.51
2019-02-02T11:15:32.407Z,1009.49
2019-02-02T11:16:32.308Z,1009.49
2019-02-02T11:17:32.398Z,1009.45
2019-02-02T11:18:32.224Z,1009.48
2019-02-02T11:19:32.324Z,1009.43
2019-02-02T11:20:32.330Z,1009.44
2019-02-02T11:21:32.218Z,1009.46
2019-02-02T11:22:32.209Z,1009.49
2019-02-02T11:23:32.188Z,1009.49
2019-02-02T11:24:32.183Z,1009.48
2019-02-02T11:25:32.207Z,1009.53
2019-02-02T11:26:32.165Z,1009.54
2019-02-02T11:27:32.102Z,1009.55
2019-02-02T11:28:32.093Z,1009.59
2019-02-02T11:29:32.068Z,1009.57
2019-02-02T11:30:32.067Z,1009.55
2019-02-02T11:31:32.040Z,1009.56
2019-02-02T11:32:32.026Z,1009.55
2019-02-02T11:33:32.011Z,1009.53
2019-02-02T11:34:31.998Z,1009.52
2019-02-02T11:35:31.984Z,1009.54
2019-02-02T11:36:31.969Z,1009.56
2019-02-02T11:37:31.955Z,1009.58
2019-02-02T11:38:31.941Z,1009.56
2019-02-02T11:39:31.928Z,1009.59
2019-02-02T11:40:31.913Z,1009.64
2019-02-02T11:41:31.899Z,1009.62
2019-02-02T11:42:31.885Z,1009.66
2019-02-02T11:43:31.870Z,1009.69
2019-02-02T11:44:31.856Z,1009.66
2019-02-02T11:45:31.842Z,1009.65
2019-02-02T11:46:31.828Z,1009.61
2019-02-02T11:47:31.813Z,1009.61
2019-02-02T11:48:31.800Z,1009.61
2019-02-02T11:49:31.786Z,1009.53
2019-02-02T11:50:31.773Z,1009.52
2019-02-02T11:51:31.761Z,1009.46
2019-02-02T11:52:31.743Z,1009.46
2019-02-02T11:53:31.729Z,1009.44
2019-02-02T11:54:31.716Z,1009.42
2019-02-02T11:55:31.701Z,1009.43
2019-02-02T11:56:31.685Z,1009.41
2019-02-02T11:57:31.673Z,1009.47
2019-02-02T11:58:31.658Z,1009.49
2019-02-02T11:59:31.644Z,1009.49
2019-02-02T12:00:31.630Z,1009.55
2019-02-02T12:01:31.619Z,1009.57
2019-02-02T12:02:31.601Z,1009.57
2019-02-02T12:03:31.587Z,1009.52
2019-02-02T12:04:31.573Z,1009.5
2019-02-02T12:05:31.559Z,1009.5
2019-02-02T12:06:31.544Z,1009.44
2019-02-02T12:07:31.531Z,1009.42
2019-02-02T12:08:31.517Z,1009.4